createdAt,value
2022-09-28T00:01:54.659Z,0.52
2022-09-28T00:04:21.688Z,0.50
2022-09-28T00:06:48.899Z,0.50
2022-09-28T00:09:16.908Z,0.57
2022-09-28T00:11:43.918Z,0.45
2022-09-28T00:14:11.374Z,0.40
2022-09-28T00:16:40.965Z,0.40
2022-09-28T00:19:08.415Z,0.50
2022-09-28T00:21:37.471Z,0.40
2022-09-28T00:24:15.859Z,0.50
2022-09-28T00:26:50.023Z,0.40
2022-09-28T00:29:23.328Z,0.40
2022-09-28T00:31:57.280Z,0.50
2022-09-28T00:34:24.114Z,0.40
2022-09-28T00:36:51.011Z,0.60
2022-09-28T00:39:18.342Z,0.50
2022-09-28T00:41:46.394Z,0.60
2022-09-28T00:44:46.349Z,0.43
2022-09-28T00:47:35.440Z,0.50
2022-09-28T00:50:12.464Z,0.60
2022-09-28T00:52:55.389Z,0.50
2022-09-28T00:55:37.950Z,0.70
2022-09-28T00:58:11.526Z,0.60
2022-09-28T01:00:41.064Z,0.52
2022-09-28T01:03:09.543Z,0.63
2022-09-28T01:05:38.586Z,0.70
2022-09-28T01:08:06.105Z,0.80
2022-09-28T01:10:33.657Z,0.80
2022-09-28T01:13:00.461Z,0.80
2022-09-28T01:15:29.267Z,0.75
2022-09-28T01:18:16.067Z,0.70
2022-09-28T01:21:24.989Z,0.57
2022-09-28T01:24:30.048Z,0.50
2022-09-28T01:27:17.694Z,0.40
2022-09-28T01:29:55.366Z,0.40
2022-09-28T01:32:47.903Z,0.50
2022-09-28T01:35:25.282Z,0.40
2022-09-28T01:37:52.308Z,0.70
2022-09-28T01:40:22.805Z,0.40
2022-09-28T01:42:56.348Z,0.40
2022-09-28T01:45:28.366Z,0.40
2022-09-28T01:48:02.202Z,0.47
2022-09-28T01:50:31.207Z,0.40
2022-09-28T01:53:13.847Z,0.50
2022-09-28T01:55:45.953Z,0.60
2022-09-28T01:58:23.535Z,0.52
2022-09-28T02:00:57.895Z,0.60
2022-09-28T02:03:48.837Z,0.53
2022-09-28T02:06:21.638Z,0.60
2022-09-28T02:08:56.559Z,0.70
2022-09-28T02:11:32.473Z,0.52
2022-09-28T02:14:05.591Z,0.50
2022-09-28T02:16:43.956Z,0.60
2022-09-28T02:19:15.712Z,0.65
2022-09-28T02:21:54.440Z,0.60
2022-09-28T02:24:31.279Z,0.60
2022-09-28T02:27:02.315Z,0.45
2022-09-28T02:29:33.178Z,0.60
2022-09-28T02:32:00.731Z,0.52
2022-09-28T02:34:27.540Z,0.70
2022-09-28T02:36:54.576Z,0.63
2022-09-28T02:39:21.438Z,0.52
2022-09-28T02:42:20.297Z,0.45
2022-09-28T02:45:19.283Z,0.50
2022-09-28T02:47:46.250Z,0.50
2022-09-28T02:50:43.623Z,0.75
2022-09-28T02:53:30.784Z,0.50
2022-09-28T02:56:20.827Z,0.60
2022-09-28T02:58:50.924Z,0.60
2022-09-28T03:01:40.975Z,0.75
2022-09-28T03:04:22.901Z,0.82
2022-09-28T03:07:17.849Z,0.70
2022-09-28T03:09:54.295Z,0.43
2022-09-28T03:12:23.710Z,0.80
2022-09-28T03:15:24.623Z,0.57
2022-09-28T03:17:52.561Z,1.23
2022-09-28T03:20:19.716Z,2.10
2022-09-28T03:23:00.497Z,1.43
2022-09-28T03:25:33.362Z,0.90
2022-09-28T03:28:00.206Z,0.70
2022-09-28T03:30:27.862Z,0.70
2022-09-28T03:32:59.366Z,0.60
2022-09-28T03:35:28.418Z,0.60
2022-09-28T03:37:56.538Z,0.60
2022-09-28T03:40:25.569Z,0.85
2022-09-28T03:42:52.496Z,0.75
2022-09-28T03:45:20.202Z,0.88
2022-09-28T03:47:49.236Z,1.10
2022-09-28T03:50:18.394Z,0.77
2022-09-28T03:52:45.066Z,0.85
2022-09-28T03:55:11.922Z,0.98
2022-09-28T03:57:38.815Z,0.70
2022-09-28T04:00:06.630Z,1.00
2022-09-28T04:02:40.531Z,0.80
2022-09-28T04:05:09.311Z,0.90
2022-09-28T04:07:37.723Z,1.00
2022-09-28T04:10:04.683Z,0.90
2022-09-28T04:12:31.440Z,0.93
2022-09-28T04:14:58.186Z,1.02
2022-09-28T04:17:25.124Z,0.77
2022-09-28T04:19:52.138Z,1.00
2022-09-28T04:22:39.782Z,0.60
2022-09-28T04:25:06.680Z,0.80
2022-09-28T04:27:52.020Z,1.10
2022-09-28T04:30:19.148Z,1.00
2022-09-28T04:32:49.473Z,1.25
2022-09-28T04:35:17.188Z,1.00
2022-09-28T04:37:44.024Z,1.15
2022-09-28T04:40:11.295Z,4.63
2022-09-28T04:42:38.074Z,1.80
2022-09-28T04:45:05.354Z,1.20
2022-09-28T04:47:35.119Z,0.85
2022-09-28T04:50:19.379Z,0.80
2022-09-28T04:53:05.883Z,0.90
2022-09-28T04:55:32.804Z,0.90
2022-09-28T04:58:03.399Z,0.80
2022-09-28T05:00:33.115Z,0.90
2022-09-28T05:03:22.575Z,1.00
2022-09-28T05:06:18.365Z,0.93
2022-09-28T05:08:47.253Z,1.20
2022-09-28T05:11:15.445Z,2.83
2022-09-28T05:13:45.621Z,1.70
2022-09-28T05:16:16.239Z,1.00
2022-09-28T05:19:01.815Z,1.25
2022-09-28T05:21:30.050Z,1.75
2022-09-28T05:23:58.274Z,12.95
2022-09-28T05:26:25.596Z,10.45
2022-09-28T05:28:52.411Z,2.00
2022-09-28T05:31:37.841Z,1.10
2022-09-28T05:34:23.139Z,0.88
2022-09-28T05:36:49.967Z,1.20
2022-09-28T05:39:18.063Z,1.00
2022-09-28T05:41:45.223Z,2.78
2022-09-28T05:44:11.970Z,0.90
2022-09-28T05:46:38.818Z,0.90
2022-09-28T05:49:05.686Z,1.13
2022-09-28T05:51:32.656Z,0.73
2022-09-28T05:54:03.267Z,0.90
2022-09-28T05:56:33.417Z,1.00
2022-09-28T05:59:05.216Z,1.00
2022-09-28T06:01:32.186Z,0.70
2022-09-28T06:03:59.935Z,0.93
2022-09-28T06:06:26.792Z,0.75
2022-09-28T06:08:53.471Z,0.68
2022-09-28T06:11:32.714Z,0.90
2022-09-28T06:14:05.168Z,1.02
2022-09-28T06:16:32.631Z,1.00
2022-09-28T06:18:59.367Z,0.77
2022-09-28T06:21:59.209Z,0.90
2022-09-28T06:24:26.286Z,0.88
2022-09-28T06:26:53.106Z,1.05
2022-09-28T06:29:21.004Z,0.95
2022-09-28T06:31:47.792Z,1.00
2022-09-28T06:34:14.919Z,1.02
2022-09-28T06:36:41.780Z,0.80
2022-09-28T06:39:09.275Z,0.80
2022-09-28T06:41:36.712Z,1.20
2022-09-28T06:44:13.549Z,1.20
2022-09-28T06:46:58.817Z,0.95
2022-09-28T06:49:42.518Z,0.80
2022-09-28T06:52:27.330Z,0.93
2022-09-28T06:55:14.384Z,1.25
2022-09-28T06:57:47.434Z,0.90
2022-09-28T07:00:15.523Z,0.93
2022-09-28T07:02:45.106Z,1.10
2022-09-28T07:05:37.041Z,0.70
2022-09-28T07:08:36.581Z,1.08
2022-09-28T07:11:26.791Z,0.90
2022-09-28T07:14:23.072Z,0.82
2022-09-28T07:17:12.436Z,0.90
2022-09-28T07:19:40.447Z,0.85
2022-09-28T07:22:07.466Z,1.40
2022-09-28T07:24:34.601Z,1.07
2022-09-28T07:27:24.431Z,1.10
2022-09-28T07:30:14.831Z,1.00
2022-09-28T07:33:01.319Z,1.58
2022-09-28T07:35:53.579Z,0.80
2022-09-28T07:38:22.528Z,1.00
2022-09-28T07:41:08.129Z,1.48
2022-09-28T07:43:35.730Z,1.15
2022-09-28T07:46:03.816Z,1.45
2022-09-28T07:48:36.661Z,1.52
2022-09-28T07:51:21.245Z,1.30
2022-09-28T07:54:01.443Z,1.23
2022-09-28T07:56:39.654Z,1.58
2022-09-28T07:59:21.833Z,1.10
2022-09-28T08:02:12.596Z,1.33
2022-09-28T08:04:40.858Z,1.23
2022-09-28T08:07:11.506Z,0.90
2022-09-28T08:09:39.495Z,1.10
2022-09-28T08:12:29.036Z,1.15
2022-09-28T08:15:18.897Z,1.27
2022-09-28T08:18:10.405Z,1.00
2022-09-28T08:20:56.291Z,1.05
2022-09-28T08:23:23.716Z,0.90
2022-09-28T08:25:55.390Z,0.90
2022-09-28T08:28:24.172Z,1.10
2022-09-28T08:30:54.450Z,1.30
2022-09-28T08:33:42.146Z,1.17
2022-09-28T08:36:28.366Z,1.27
2022-09-28T08:39:01.237Z,1.13
2022-09-28T08:41:54.458Z,1.25
2022-09-28T08:48:33.345Z,1.00
2022-09-28T08:51:35.267Z,1.15
2022-09-28T08:54:26.131Z,1.00
2022-09-28T08:57:01.573Z,0.90
2022-09-28T08:59:52.160Z,0.90
2022-09-28T09:02:33.600Z,1.17
2022-09-28T09:05:42.340Z,1.00
2022-09-28T09:08:15.845Z,0.90
2022-09-28T09:10:49.390Z,0.90
2022-09-28T09:13:37.594Z,0.97
2022-09-28T09:16:24.262Z,0.80
2022-09-28T09:19:20.268Z,0.80
2022-09-28T09:22:12.519Z,1.00
2022-09-28T09:24:50.451Z,1.10
2022-09-28T09:27:28.893Z,1.00
2022-09-28T09:30:17.712Z,1.15
2022-09-28T09:33:05.115Z,1.15
2022-09-28T09:35:48.549Z,0.95
2022-09-28T09:38:45.211Z,0.90
2022-09-28T09:41:51.262Z,1.37
2022-09-28T09:45:17.188Z,0.90
2022-09-28T09:48:25.222Z,0.70
2022-09-28T09:50:58.855Z,0.80
2022-09-28T09:53:38.479Z,0.80
2022-09-28T09:56:15.409Z,0.90
2022-09-28T09:59:11.417Z,0.90
2022-09-28T10:01:56.985Z,0.80
2022-09-28T10:04:44.481Z,0.73
2022-09-28T10:07:24.539Z,0.80
2022-09-28T10:09:56.977Z,1.10
2022-09-28T10:12:44.990Z,0.80
2022-09-28T10:15:17.746Z,0.90
2022-09-28T10:18:02.862Z,0.80
2022-09-28T10:20:49.007Z,0.90
2022-09-28T10:23:29.342Z,0.90
2022-09-28T10:26:25.057Z,0.88
2022-09-28T10:28:58.114Z,0.88
2022-09-28T10:31:42.230Z,0.70
2022-09-28T10:34:26.874Z,0.80
2022-09-28T10:36:55.952Z,0.70
2022-09-28T10:39:31.400Z,0.65
2022-09-28T10:42:03.502Z,0.90
2022-09-28T10:44:38.857Z,0.85
2022-09-28T10:47:24.498Z,0.80
2022-09-28T10:49:53.610Z,0.80
2022-09-28T10:52:36.966Z,0.90
2022-09-28T10:55:28.995Z,1.00
2022-09-28T10:57:57.068Z,1.20
2022-09-28T11:00:42.248Z,1.00
2022-09-28T11:03:27.970Z,0.73
2022-09-28T11:06:00.747Z,0.85
2022-09-28T11:08:31.798Z,0.70
2022-09-28T11:11:12.943Z,0.70
2022-09-28T11:13:45.862Z,0.90
2022-09-28T11:16:43.131Z,1.07
2022-09-28T11:19:19.228Z,0.70
2022-09-28T11:21:46.469Z,0.98
2022-09-28T11:24:26.020Z,1.33
2022-09-28T11:26:57.939Z,0.93
2022-09-28T11:29:35.929Z,0.93
2022-09-28T11:32:31.819Z,0.90
2022-09-28T11:35:41.959Z,0.70
2022-09-28T11:38:36.097Z,0.70
2022-09-28T11:41:43.961Z,0.80
2022-09-28T11:44:44.569Z,0.83
2022-09-28T11:47:37.607Z,0.70
2022-09-28T11:50:22.937Z,0.73
2022-09-28T11:52:57.124Z,0.85
2022-09-28T11:55:44.002Z,0.70
2022-09-28T11:58:29.106Z,0.77
2022-09-28T12:01:20.887Z,0.73
2022-09-28T12:04:41.497Z,0.60
2022-09-28T12:08:02.350Z,0.80
2022-09-28T12:10:57.056Z,0.60
2022-09-28T12:13:49.554Z,0.63
2022-09-28T12:19:16.380Z,0.60
2022-09-28T12:21:51.309Z,0.60
2022-09-28T12:24:26.950Z,0.60
2022-09-28T12:27:12.028Z,0.70
2022-09-28T12:29:49.902Z,0.90
2022-09-28T12:32:31.902Z,1.10
2022-09-28T12:34:58.722Z,0.88
2022-09-28T12:37:53.910Z,0.90
2022-09-28T12:40:59.800Z,1.00
2022-09-28T12:44:05.850Z,0.77
2022-09-28T12:46:47.776Z,0.95
2022-09-28T12:52:23.049Z,0.70
2022-09-28T12:54:55.489Z,0.83
2022-09-28T12:57:40.661Z,0.73
2022-09-28T13:00:12.369Z,0.80
2022-09-28T13:03:09.387Z,0.65
2022-09-28T13:05:44.369Z,0.90
2022-09-28T13:08:33.111Z,0.90
2022-09-28T13:11:22.264Z,0.90
2022-09-28T13:14:03.316Z,0.82
2022-09-28T13:16:41.628Z,0.70
2022-09-28T13:19:20.410Z,0.73
2022-09-28T13:22:09.939Z,0.73
2022-09-28T13:24:44.291Z,0.70
2022-09-28T13:27:17.261Z,0.80
2022-09-28T13:29:44.413Z,0.90
2022-09-28T13:32:12.755Z,1.08
2022-09-28T13:34:39.892Z,0.80
2022-09-28T13:37:20.949Z,0.90
2022-09-28T13:39:52.858Z,1.10
2022-09-28T13:42:30.366Z,0.82
2022-09-28T13:45:22.139Z,0.90
2022-09-28T13:47:51.967Z,0.80
2022-09-28T13:50:42.300Z,0.82
2022-09-28T13:53:48.721Z,0.85
2022-09-28T13:56:37.667Z,0.90
2022-09-28T13:59:27.280Z,0.68
2022-09-28T14:02:06.875Z,0.70
2022-09-28T14:04:55.831Z,0.70
2022-09-28T14:07:45.345Z,0.82
2022-09-28T14:10:21.035Z,0.80
2022-09-28T14:12:49.886Z,0.80
2022-09-28T14:15:28.868Z,1.13
2022-09-28T14:18:08.385Z,1.00
2022-09-28T14:20:36.513Z,0.88
2022-09-28T14:23:35.983Z,0.93
2022-09-28T14:26:11.686Z,0.70
2022-09-28T14:28:51.298Z,0.80
2022-09-28T14:31:26.506Z,0.60
2022-09-28T14:33:58.850Z,0.73
2022-09-28T14:37:06.078Z,0.73
2022-09-28T14:39:55.211Z,0.75
2022-09-28T14:42:24.682Z,0.90
2022-09-28T14:45:06.379Z,0.90
2022-09-28T14:47:35.223Z,0.80
2022-09-28T14:50:21.437Z,1.02
2022-09-28T14:52:52.850Z,1.00
2022-09-28T14:55:27.678Z,0.80
2022-09-28T14:57:58.975Z,0.95
2022-09-28T15:00:30.416Z,0.73
2022-09-28T15:03:02.418Z,0.90
2022-09-28T15:05:44.154Z,0.88
2022-09-28T15:08:12.048Z,0.70
2022-09-28T15:10:45.286Z,0.73
2022-09-28T15:13:28.907Z,0.80
2022-09-28T15:16:07.094Z,0.90
2022-09-28T15:18:58.532Z,1.05
2022-09-28T15:21:34.399Z,1.07
2022-09-28T15:24:01.283Z,0.90
2022-09-28T15:26:32.921Z,0.70
2022-09-28T15:29:03.235Z,0.80
2022-09-28T15:31:35.316Z,0.90
2022-09-28T15:34:20.642Z,1.00
2022-09-28T15:36:47.691Z,1.20
2022-09-28T15:39:20.862Z,1.20
2022-09-28T15:41:49.979Z,1.17
2022-09-28T15:44:22.238Z,1.10
2022-09-28T15:46:51.959Z,1.13
2022-09-28T15:49:31.570Z,1.05
2022-09-28T15:52:03.156Z,1.10
2022-09-28T15:54:37.603Z,1.02
2022-09-28T15:57:04.519Z,1.10
2022-09-28T15:59:31.976Z,1.07
2022-09-28T16:02:09.994Z,0.95
2022-09-28T16:04:43.798Z,1.13
2022-09-28T16:07:11.918Z,1.02
2022-09-28T16:10:02.405Z,1.33
2022-09-28T16:12:48.318Z,1.10
2022-09-28T16:15:20.385Z,1.23
2022-09-28T16:18:13.126Z,1.08
2022-09-28T16:20:41.555Z,1.02
2022-09-28T16:23:24.351Z,2.03
2022-09-28T16:25:53.718Z,1.30
2022-09-28T16:28:34.602Z,1.50
2022-09-28T16:31:28.762Z,1.10
2022-09-28T16:34:11.736Z,1.30
2022-09-28T16:36:45.831Z,1.10
2022-09-28T16:39:14.152Z,1.00
2022-09-28T16:41:45.955Z,0.82
2022-09-28T16:44:23.749Z,1.25
2022-09-28T16:46:52.463Z,0.93
2022-09-28T16:49:20.161Z,0.88
2022-09-28T16:51:47.559Z,1.00
2022-09-28T16:54:36.013Z,0.73
2022-09-28T16:57:05.641Z,0.80
2022-09-28T16:59:33.065Z,1.05
2022-09-28T17:02:00.354Z,0.88
2022-09-28T17:04:27.684Z,0.80
2022-09-28T17:06:56.316Z,1.20
2022-09-28T17:09:24.421Z,0.82
2022-09-28T17:11:57.215Z,1.00
2022-09-28T17:14:24.330Z,1.20
2022-09-28T17:17:08.730Z,1.17
2022-09-28T17:19:37.672Z,1.20
2022-09-28T17:22:04.423Z,1.42
2022-09-28T17:24:31.182Z,1.45
2022-09-28T17:26:58.007Z,1.50
2022-09-28T17:29:24.778Z,1.47
2022-09-28T17:31:52.142Z,1.42
2022-09-28T17:34:19.854Z,1.65
2022-09-28T17:36:47.518Z,1.50
2022-09-28T17:39:17.577Z,1.60
2022-09-28T17:41:44.845Z,1.40
2022-09-28T17:44:16.261Z,1.73
2022-09-28T17:46:46.341Z,1.60
2022-09-28T17:49:13.856Z,1.70
2022-09-28T17:51:40.737Z,1.40
2022-09-28T17:54:08.375Z,1.57
2022-09-28T17:56:36.053Z,1.50
2022-09-28T17:59:05.665Z,1.77
2022-09-28T18:01:34.686Z,2.67
2022-09-28T18:04:08.119Z,2.35
2022-09-28T18:06:37.128Z,3.50
2022-09-28T18:09:05.229Z,3.75
2022-09-28T18:11:33.367Z,4.28
2022-09-28T18:14:00.155Z,2.70
2022-09-28T18:16:28.743Z,2.10
2022-09-28T18:18:56.263Z,1.90
2022-09-28T18:21:23.098Z,1.50
2022-09-28T18:23:49.747Z,1.63
2022-09-28T18:26:19.575Z,1.80
2022-09-28T18:28:46.552Z,2.20
2022-09-28T18:31:15.044Z,1.60
2022-09-28T18:33:41.975Z,1.30
2022-09-28T18:36:08.850Z,1.17
2022-09-28T18:38:36.227Z,1.30
2022-09-28T18:41:10.211Z,1.33
2022-09-28T18:43:37.425Z,1.27
2022-09-28T18:46:11.280Z,1.40
2022-09-28T18:48:40.569Z,1.20
2022-09-28T18:51:11.997Z,1.38
2022-09-28T18:53:39.719Z,1.25
2022-09-28T18:56:12.183Z,0.87
2022-09-28T18:58:40.791Z,1.10
2022-09-28T19:01:28.612Z,1.00
2022-09-28T19:03:55.154Z,2.35
2022-09-28T19:06:21.982Z,1.45
2022-09-28T19:08:53.667Z,1.50
2022-09-28T19:11:20.452Z,1.25
2022-09-28T19:13:47.555Z,1.55
2022-09-28T19:16:28.720Z,1.50
2022-09-28T19:18:57.303Z,1.50
2022-09-28T19:21:24.541Z,1.73
2022-09-28T19:23:53.643Z,1.50
2022-09-28T19:26:26.130Z,1.42
2022-09-28T19:28:53.462Z,1.35
2022-09-28T19:31:20.613Z,1.90
2022-09-28T19:33:48.164Z,1.63
2022-09-28T19:36:18.491Z,1.40
2022-09-28T19:38:46.262Z,1.55
2022-09-28T19:41:43.123Z,1.50
2022-09-28T19:44:27.867Z,1.50
2022-09-28T19:47:00.072Z,2.47
2022-09-28T19:49:28.237Z,2.33
2022-09-28T19:52:12.051Z,2.03
2022-09-28T19:54:39.850Z,1.60
2022-09-28T19:57:08.757Z,1.30
2022-09-28T19:59:37.335Z,1.40
2022-09-28T20:02:05.472Z,1.20
2022-09-28T20:04:32.251Z,1.30
2022-09-28T20:06:59.051Z,1.00
2022-09-28T20:09:25.852Z,1.15
2022-09-28T20:11:53.196Z,0.90
2022-09-28T20:14:21.526Z,1.60
2022-09-28T20:16:50.391Z,1.13
2022-09-28T20:19:19.459Z,1.45
2022-09-28T20:21:48.117Z,1.55
2022-09-28T20:24:16.591Z,1.50
2022-09-28T20:26:44.646Z,1.50
2022-09-28T20:29:12.027Z,1.35
2022-09-28T20:31:38.814Z,1.20
2022-09-28T20:34:06.485Z,1.52
2022-09-28T20:36:33.695Z,1.80
2022-09-28T20:39:01.997Z,1.85
2022-09-28T20:41:35.713Z,1.67
2022-09-28T20:44:05.990Z,1.55
2022-09-28T20:46:35.438Z,1.70
2022-09-28T20:49:02.517Z,1.90
2022-09-28T20:51:29.251Z,1.80
2022-09-28T20:53:57.408Z,1.75
2022-09-28T20:56:34.533Z,1.73
2022-09-28T20:59:01.255Z,2.25
2022-09-28T21:01:30.510Z,2.60
2022-09-28T21:03:59.622Z,2.10
2022-09-28T21:06:31.715Z,1.77
2022-09-28T21:08:58.949Z,1.70
2022-09-28T21:11:27.959Z,1.70
2022-09-28T21:13:59.386Z,1.70
2022-09-28T21:16:28.935Z,1.60
2022-09-28T21:18:55.754Z,1.67
2022-09-28T21:21:23.715Z,1.77
2022-09-28T21:23:57.661Z,1.80
2022-09-28T21:26:26.950Z,2.00
2022-09-28T21:28:55.577Z,2.10
2022-09-28T21:31:28.780Z,2.20
2022-09-28T21:33:56.974Z,1.88
2022-09-28T21:36:24.493Z,2.25
2022-09-28T21:38:51.300Z,1.93
2022-09-28T21:41:17.990Z,2.20
2022-09-28T21:43:45.739Z,2.38
2022-09-28T21:46:12.664Z,2.10
2022-09-28T21:48:39.599Z,2.25
2022-09-28T21:51:10.213Z,2.17
2022-09-28T21:53:37.902Z,2.28
2022-09-28T21:56:07.413Z,2.30
2022-09-28T21:58:35.519Z,2.45
2022-09-28T22:01:09.161Z,2.30
2022-09-28T22:03:36.691Z,2.27
2022-09-28T22:06:04.896Z,2.50
2022-09-28T22:08:31.995Z,2.53
2022-09-28T22:11:09.935Z,3.00
2022-09-28T22:13:47.672Z,2.60
2022-09-28T22:16:16.635Z,2.37
2022-09-28T22:18:44.242Z,2.75
2022-09-28T22:21:20.719Z,2.50
2022-09-28T22:23:47.884Z,2.17
2022-09-28T22:26:20.903Z,2.30
2022-09-28T22:28:58.785Z,2.30
2022-09-28T22:31:28.484Z,2.20
2022-09-28T22:33:55.853Z,2.10
2022-09-28T22:36:22.915Z,2.00
2022-09-28T22:38:49.994Z,2.28
2022-09-28T22:41:20.657Z,2.30
2022-09-28T22:43:49.810Z,2.30
2022-09-28T22:46:19.536Z,1.90
2022-09-28T22:48:51.140Z,1.60
2022-09-28T22:51:18.062Z,1.85
2022-09-28T22:53:45.150Z,1.90
2022-09-28T22:56:17.522Z,1.80
2022-09-28T22:58:45.343Z,1.98
2022-09-28T23:01:17.842Z,1.65
2022-09-28T23:03:45.483Z,1.52
2022-09-28T23:06:14.944Z,2.00
2022-09-28T23:08:41.647Z,1.67
2022-09-28T23:11:08.809Z,1.98
2022-09-28T23:13:35.618Z,1.55
2022-09-28T23:16:07.465Z,1.80
2022-09-28T23:18:36.913Z,1.80
2022-09-28T23:21:06.713Z,1.90
2022-09-28T23:23:33.810Z,2.00
2022-09-28T23:26:00.896Z,1.60
2022-09-28T23:28:27.683Z,2.00
2022-09-28T23:30:54.604Z,1.97
2022-09-28T23:33:21.799Z,2.17
2022-09-28T23:35:48.827Z,2.25
2022-09-28T23:38:20.654Z,2.50
2022-09-28T23:40:47.880Z,2.30
2022-09-28T23:43:15.318Z,2.10
2022-09-28T23:45:45.609Z,2.03
2022-09-28T23:48:15.173Z,1.67
2022-09-28T23:50:43.486Z,1.50
2022-09-28T23:53:11.866Z,1.98
2022-09-28T23:55:38.688Z,1.80
2022-09-28T23:58:05.483Z,1.65
